Time;durP1;ratioP1;P1;durP2;ratioP2;P2;SDS_P1;SDS_P2;PMS_P1;PMS_P2;Temp;Humidity;BMP_temperature;BMP_pressure;BME280_temperature;BME280_humidity;BME280_pressure;Samples;Min_cycle;Max_cycle;Signal;HPM_P1;HPM_P2
2021/06/17 00:01:31;;;;;;;5.50;4.97;;;21.90;91.70;;;;;;4998104;28;20190;-66
2021/06/17 00:03:57;;;;;;;5.27;4.77;;;21.90;91.80;;;;;;4992853;28;20607;-66
2021/06/17 00:06:22;;;;;;;6.07;5.47;;;21.90;91.90;;;;;;4993417;28;20211;-66
2021/06/17 00:08:48;;;;;;;5.30;4.87;;;21.80;91.80;;;;;;4999175;28;20171;-65
2021/06/17 00:11:13;;;;;;;5.20;4.80;;;21.80;91.80;;;;;;4998401;28;20176;-65
2021/06/17 00:13:39;;;;;;;5.27;4.87;;;21.70;91.90;;;;;;4991957;28;20192;-65
2021/06/17 00:16:09;;;;;;;4.85;4.55;;;21.70;92.20;;;;;;4992527;28;20214;-65
2021/06/17 00:18:36;;;;;;;4.90;4.50;;;21.60;92.30;;;;;;4989732;28;20257;-65
2021/06/17 00:21:03;;;;;;;5.90;5.40;;;21.60;92.60;;;;;;4993968;28;20446;-65
2021/06/17 00:23:30;;;;;;;7.95;5.45;;;21.50;92.80;;;;;;4992682;28;20203;-65
2021/06/17 00:25:56;;;;;;;6.03;5.50;;;21.50;92.90;;;;;;5000764;28;20182;-66
2021/06/17 00:28:23;;;;;;;5.90;5.40;;;21.60;93.20;;;;;;4997688;28;20199;-65
2021/06/17 00:30:50;;;;;;;5.80;5.30;;;21.50;93.20;;;;;;4995167;28;20442;-65
2021/06/17 00:33:15;;;;;;;5.85;5.35;;;21.40;93.20;;;;;;5001012;28;20686;-66
2021/06/17 00:35:44;;;;;;;5.30;4.90;;;21.30;93.40;;;;;;4993294;28;20198;-66
2021/06/17 00:38:10;;;;;;;5.20;4.80;;;21.30;93.40;;;;;;4994402;28;20210;-66
2021/06/17 00:40:36;;;;;;;5.20;4.80;;;21.40;93.50;;;;;;5000937;28;20604;-66
2021/06/17 00:43:03;;;;;;;5.57;5.17;;;21.40;93.70;;;;;;4999829;28;20191;-66
2021/06/17 00:45:41;;;;;;;5.28;4.78;;;21.30;93.70;;;;;;4991429;28;20439;-66
2021/06/17 00:48:07;;;;;;;5.00;4.60;;;21.30;93.80;;;;;;4992670;28;20214;-66
2021/06/17 00:50:39;;;;;;;5.82;5.32;;;21.30;93.70;;;;;;4993045;28;20184;-66
2021/06/17 00:53:14;;;;;;;4.93;4.47;;;21.20;93.70;;;;;;4992156;28;20215;-65
2021/06/17 00:55:42;;;;;;;5.40;5.00;;;21.20;93.80;;;;;;4995942;28;20675;-66
2021/06/17 00:58:08;;;;;;;5.00;4.60;;;21.10;94.00;;;;;;4994665;28;20596;-66
2021/06/17 01:00:35;;;;;;;5.43;4.93;;;21.10;94.10;;;;;;5000506;28;20213;-65
2021/06/17 01:03:00;;;;;;;5.35;4.95;;;21.00;94.20;;;;;;5003790;28;20434;-66
2021/06/17 01:05:27;;;;;;;6.03;5.53;;;21.00;94.40;;;;;;4990814;28;20184;-66
2021/06/17 01:07:56;;;;;;;5.60;5.10;;;21.00;94.50;;;;;;5002001;28;20457;-66
2021/06/17 01:10:37;;;;;;;5.45;4.95;;;21.00;94.60;;;;;;5001341;28;20233;-65
2021/06/17 01:13:34;;;;;;;5.40;4.90;;;20.90;94.60;;;;;;4999875;28;20208;-66
2021/06/17 01:16:18;;;;;;;5.63;5.13;;;20.90;94.70;;;;;;4990904;28;20187;-66
2021/06/17 01:18:50;;;;;;;6.47;5.00;;;20.80;95.00;;;;;;4994330;28;20313;-65
2021/06/17 01:21:30;;;;;;;5.35;4.95;;;20.80;94.90;;;;;;4977356;28;20180;-64
2021/06/17 01:24:17;;;;;;;6.68;5.20;;;20.80;94.90;;;;;;5001667;28;20210;-65
2021/06/17 01:26:46;;;;;;;6.20;5.63;;;20.80;94.90;;;;;;4996978;28;20210;-66
2021/06/17 01:29:20;;;;;;;5.50;5.10;;;20.70;95.20;;;;;;4990777;28;20191;-65
2021/06/17 01:31:46;;;;;;;7.15;5.53;;;20.70;95.50;;;;;;4992652;28;20241;-65
2021/06/17 01:34:13;;;;;;;5.68;5.13;;;20.60;95.50;;;;;;5003633;28;20226;-65
2021/06/17 01:36:47;;;;;;;5.78;5.38;;;20.70;95.70;;;;;;4998110;28;20211;-66
2021/06/17 01:39:15;;;;;;;5.47;5.07;;;20.60;95.70;;;;;;4985110;28;20656;-66
2021/06/17 01:41:45;;;;;;;5.10;4.70;;;20.50;95.60;;;;;;4990688;28;20781;-65
2021/06/17 01:44:12;;;;;;;5.70;5.13;;;20.60;95.80;;;;;;4997635;28;20736;-66
2021/06/17 01:46:38;;;;;;;5.93;5.43;;;20.50;95.80;;;;;;4991381;28;20199;-65
2021/06/17 01:49:05;;;;;;;5.20;4.70;;;20.50;95.80;;;;;;4998635;28;20186;-65
2021/06/17 01:51:32;;;;;;;6.25;5.65;;;20.50;95.90;;;;;;4989221;28;20322;-65
2021/06/17 01:53:58;;;;;;;6.07;5.50;;;20.50;95.90;;;;;;5000520;28;20202;-65
2021/06/17 01:56:25;;;;;;;6.18;4.80;;;20.50;95.90;;;;;;4990775;28;20195;-65
2021/06/17 01:58:57;;;;;;;6.07;5.07;;;20.40;96.00;;;;;;5010257;28;20197;-66
2021/06/17 02:01:30;;;;;;;5.20;4.80;;;20.40;96.60;;;;;;5002540;28;20574;-65
2021/06/17 02:03:58;;;;;;;5.47;5.05;;;20.40;96.40;;;;;;5000090;28;20211;-66
2021/06/17 02:06:26;;;;;;;5.65;5.22;;;20.40;96.40;;;;;;4988954;28;20253;-65
2021/06/17 02:08:54;;;;;;;6.13;5.10;;;20.40;96.50;;;;;;5000101;28;20175;-66
2021/06/17 02:11:20;;;;;;;6.40;5.65;;;20.40;96.50;;;;;;5003808;28;20195;-66
2021/06/17 02:13:47;;;;;;;6.18;5.65;;;20.30;96.40;;;;;;4997155;28;20227;-66
2021/06/17 02:16:14;;;;;;;5.70;5.20;;;20.30;96.70;;;;;;4998403;28;20180;-65
2021/06/17 02:18:41;;;;;;;5.70;5.22;;;20.40;96.50;;;;;;5005844;28;20298;-65
2021/06/17 02:21:10;;;;;;;5.60;5.10;;;20.30;96.10;;;;;;5008344;28;20271;-65
2021/06/17 02:23:37;;;;;;;5.43;4.93;;;20.30;96.20;;;;;;4993328;28;20685;-66
2021/06/17 02:26:05;;;;;;;5.65;5.15;;;20.30;96.20;;;;;;4998317;28;20657;-66
2021/06/17 02:28:35;;;;;;;6.65;4.93;;;20.30;96.10;;;;;;4995795;28;20214;-66
2021/06/17 02:31:06;;;;;;;5.75;5.25;;;20.30;96.20;;;;;;4998040;28;20183;-65
2021/06/17 02:33:33;;;;;;;5.38;4.88;;;20.30;96.10;;;;;;4993788;28;20204;-65
2021/06/17 02:35:59;;;;;;;6.13;5.50;;;20.30;96.30;;;;;;5000518;28;20195;-65
2021/06/17 02:38:34;;;;;;;6.47;4.93;;;20.20;96.30;;;;;;5003523;28;20215;-64
2021/06/17 02:41:07;;;;;;;5.65;5.18;;;20.20;96.40;;;;;;4999227;28;20833;-65
2021/06/17 02:43:36;;;;;;;5.25;4.85;;;20.10;96.50;;;;;;4994068;28;20231;-65
2021/06/17 02:46:02;;;;;;;4.90;4.60;;;20.10;97.00;;;;;;5006564;28;20276;-65
2021/06/17 02:48:28;;;;;;;6.00;5.50;;;20.10;96.90;;;;;;4992854;28;20207;-65
2021/06/17 02:50:54;;;;;;;5.87;5.33;;;20.10;96.80;;;;;;4988995;28;20445;-65
2021/06/17 02:53:21;;;;;;;6.03;5.43;;;20.10;96.80;;;;;;4998409;28;20194;-65
2021/06/17 02:55:48;;;;;;;6.15;5.65;;;20.10;96.90;;;;;;4994384;28;20711;-65
2021/06/17 02:58:44;;;;;;;5.90;5.40;;;20.00;96.60;;;;;;5004118;28;20199;-65
2021/06/17 03:01:14;;;;;;;7.05;5.25;;;20.00;96.70;;;;;;4992945;28;20180;-65
2021/06/17 03:03:47;;;;;;;5.28;4.78;;;20.00;96.80;;;;;;5000407;28;20214;-65
2021/06/17 03:06:19;;;;;;;7.22;5.63;;;20.00;96.90;;;;;;4996411;28;20188;-65
2021/06/17 03:08:54;;;;;;;6.43;5.55;;;20.00;96.80;;;;;;5002937;28;20183;-64
2021/06/17 03:11:21;;;;;;;5.28;4.78;;;20.00;97.10;;;;;;4992625;28;20191;-64
2021/06/17 03:13:50;;;;;;;6.10;5.60;;;19.90;97.10;;;;;;5016463;28;20676;-65
2021/06/17 03:16:21;;;;;;;5.20;4.80;;;20.00;97.20;;;;;;5007507;28;20649;-65
2021/06/17 03:18:49;;;;;;;6.30;5.80;;;19.90;97.30;;;;;;5000317;28;20187;-64
2021/06/17 03:21:15;;;;;;;6.03;5.10;;;19.90;97.30;;;;;;4999450;28;20196;-64
2021/06/17 03:23:43;;;;;;;5.90;5.40;;;19.80;97.40;;;;;;5001806;28;20214;-64
2021/06/17 03:26:11;;;;;;;5.38;4.97;;;19.80;97.80;;;;;;5002059;28;20179;-65
2021/06/17 03:28:40;;;;;;;6.45;5.95;;;19.80;97.70;;;;;;5004351;28;20183;-65
2021/06/17 03:31:12;;;;;;;6.07;5.47;;;19.70;97.70;;;;;;4991113;28;20257;-65
2021/06/17 03:33:39;;;;;;;5.88;5.38;;;19.70;97.70;;;;;;4988856;28;20298;-64
2021/06/17 03:36:10;;;;;;;6.47;5.55;;;19.70;98.00;;;;;;5004779;28;20248;-70
2021/06/17 03:38:39;;;;;;;8.13;5.65;;;19.70;97.90;;;;;;4991058;28;20271;-69
2021/06/17 03:41:06;;;;;;;5.90;5.40;;;19.70;98.10;;;;;;4986529;28;20219;-68
2021/06/17 03:43:34;;;;;;;5.65;5.10;;;19.70;98.20;;;;;;4988085;28;20213;-71
2021/06/17 03:46:01;;;;;;;5.90;5.40;;;19.70;98.40;;;;;;4993688;28;20241;-70
2021/06/17 03:48:28;;;;;;;5.97;5.40;;;19.80;98.40;;;;;;4987993;28;20204;-68
2021/06/17 03:50:54;;;;;;;6.72;6.00;;;19.90;98.20;;;;;;4987584;28;20298;-62
2021/06/17 03:53:21;;;;;;;5.73;5.33;;;19.90;98.20;;;;;;4988995;28;20274;-63
2021/06/17 03:55:48;;;;;;;6.72;5.70;;;19.90;98.20;;;;;;4986075;28;20445;-64
2021/06/17 03:58:13;;;;;;;6.30;5.80;;;19.90;98.10;;;;;;4987755;28;20195;-63
2021/06/17 04:00:40;;;;;;;5.90;5.37;;;19.80;98.20;;;;;;4987659;28;20226;-68
2021/06/17 04:03:10;;;;;;;6.70;5.93;;;19.90;98.50;;;;;;4988114;28;20180;-66
2021/06/17 04:05:38;;;;;;;6.85;5.95;;;19.80;98.50;;;;;;4986459;28;20295;-62
2021/06/17 04:08:10;;;;;;;6.43;5.32;;;19.70;98.60;;;;;;4989300;28;20203;-60
2021/06/17 04:10:38;;;;;;;5.80;5.20;;;19.80;98.50;;;;;;4988683;28;20182;-58
2021/06/17 04:13:05;;;;;;;5.63;5.13;;;19.80;98.60;;;;;;4986569;28;20196;-60
2021/06/17 04:15:31;;;;;;;5.70;5.30;;;19.80;98.40;;;;;;4986236;28;20215;-58
2021/06/17 04:18:00;;;;;;;5.32;4.82;;;19.80;98.10;;;;;;4987403;28;20208;-57
2021/06/17 04:20:31;;;;;;;6.75;6.15;;;19.80;98.10;;;;;;4984288;28;20285;-56
2021/06/17 04:22:58;;;;;;;5.65;5.25;;;19.90;98.20;;;;;;4988683;28;20184;-57
2021/06/17 04:25:24;;;;;;;7.25;5.78;;;19.80;98.40;;;;;;4986064;28;20222;-58
2021/06/17 04:27:54;;;;;;;6.15;5.55;;;19.90;98.50;;;;;;4997829;28;20211;-57
2021/06/17 04:30:22;;;;;;;6.43;5.93;;;19.90;98.70;;;;;;4982797;28;20442;-54
2021/06/17 04:32:50;;;;;;;6.18;5.68;;;20.00;98.60;;;;;;4984819;28;20701;-54
2021/06/17 04:35:18;;;;;;;4.97;4.57;;;20.10;98.00;;;;;;4985674;28;20198;-55
2021/06/17 04:37:44;;;;;;;5.20;4.80;;;20.00;98.30;;;;;;4985079;28;20210;-58
2021/06/17 04:40:11;;;;;;;6.15;5.20;;;20.10;98.30;;;;;;4986698;28;20681;-61
2021/06/17 04:42:37;;;;;;;5.35;4.85;;;20.10;97.90;;;;;;4988536;28;20195;-60
2021/06/17 04:45:04;;;;;;;6.40;5.80;;;20.00;98.10;;;;;;4987404;28;20218;-59
2021/06/17 04:47:31;;;;;;;7.60;5.07;;;19.90;98.20;;;;;;4985697;28;20227;-57
2021/06/17 04:49:57;;;;;;;4.97;4.57;;;20.10;98.50;;;;;;4987566;28;20180;-60
2021/06/17 04:52:35;;;;;;;6.03;5.33;;;20.20;98.50;;;;;;4993500;28;20194;-57
2021/06/17 04:55:01;;;;;;;6.38;5.60;;;20.40;98.40;;;;;;4988889;28;20187;-57
2021/06/17 04:57:27;;;;;;;5.23;4.73;;;20.40;97.60;;;;;;4999379;28;20611;-59
2021/06/17 04:59:52;;;;;;;7.37;5.20;;;20.60;97.40;;;;;;4990437;28;20187;-57
2021/06/17 05:02:18;;;;;;;5.90;5.40;;;20.70;96.90;;;;;;4987250;28;20191;-57
2021/06/17 05:04:44;;;;;;;5.30;4.90;;;20.80;96.80;;;;;;4982777;28;20207;-56
2021/06/17 05:07:23;;;;;;;5.60;5.10;;;20.80;96.80;;;;;;4982286;28;20208;-57
2021/06/17 05:12:33;;;;;;;6.93;5.65;;;20.50;97.40;;;;;;4985568;28;20203;-56
2021/06/17 05:14:59;;;;;;;5.60;5.10;;;20.70;97.70;;;;;;4982676;28;20183;-57
2021/06/17 05:17:24;;;;;;;7.20;4.90;;;20.80;97.30;;;;;;4984697;28;20207;-60
2021/06/17 05:19:50;;;;;;;5.80;5.17;;;20.90;97.00;;;;;;4986924;28;20199;-60
2021/06/17 05:22:16;;;;;;;6.47;4.93;;;21.10;96.80;;;;;;4986870;28;20528;-60
2021/06/17 05:24:41;;;;;;;5.80;4.90;;;21.10;96.50;;;;;;4987682;28;20215;-60
2021/06/17 05:27:08;;;;;;;7.17;5.60;;;21.20;96.60;;;;;;4995545;28;20203;-60
2021/06/17 05:29:34;;;;;;;4.97;4.47;;;21.40;96.30;;;;;;4987890;28;20182;-60
2021/06/17 05:32:00;;;;;;;5.80;5.30;;;21.50;95.90;;;;;;4998049;28;20563;-60
2021/06/17 05:34:25;;;;;;;4.60;4.20;;;21.60;95.60;;;;;;4991712;28;20199;-60
2021/06/17 05:36:51;;;;;;;6.70;5.97;;;21.80;95.70;;;;;;4987010;28;20211;-60
2021/06/17 05:39:17;;;;;;;9.00;5.80;;;21.80;95.50;;;;;;4988396;28;20199;-58
2021/06/17 05:41:43;;;;;;;5.17;4.47;;;22.00;95.40;;;;;;4985936;28;20226;-61
2021/06/17 05:44:09;;;;;;;5.70;5.17;;;22.20;95.40;;;;;;4989547;28;20199;-61
2021/06/17 05:46:39;;;;;;;5.90;4.87;;;22.30;95.20;;;;;;4986970;28;20458;-61
2021/06/17 05:49:05;;;;;;;7.80;5.40;;;22.40;95.10;;;;;;4991711;28;20467;-60
2021/06/17 05:51:31;;;;;;;5.53;5.03;;;22.60;94.80;;;;;;4988678;28;21031;-60
2021/06/17 05:53:57;;;;;;;5.50;5.00;;;22.70;94.20;;;;;;4997869;28;20445;-61
2021/06/17 05:56:22;;;;;;;5.47;4.60;;;22.80;93.80;;;;;;4986303;28;20187;-62
2021/06/17 05:58:48;;;;;;;5.40;4.90;;;22.90;93.50;;;;;;4999693;28;20187;-61
2021/06/17 06:01:13;;;;;;;5.77;5.20;;;23.00;93.60;;;;;;4991149;28;20285;-61
2021/06/17 06:03:39;;;;;;;6.20;5.60;;;23.10;93.50;;;;;;4987501;28;20214;-62
2021/06/17 06:06:06;;;;;;;5.70;5.30;;;23.30;92.40;;;;;;4985051;28;20179;-62
2021/06/17 06:08:32;;;;;;;6.07;5.47;;;23.40;92.40;;;;;;4990261;28;20203;-61
2021/06/17 06:10:57;;;;;;;5.60;4.90;;;23.60;92.00;;;;;;4995780;28;21014;-60
2021/06/17 06:13:23;;;;;;;5.23;4.40;;;23.70;91.80;;;;;;4990393;28;20186;-61
2021/06/17 06:15:48;;;;;;;5.10;4.63;;;23.80;89.60;;;;;;4995409;28;20218;-59
2021/06/17 06:18:15;;;;;;;5.57;4.40;;;23.90;88.40;;;;;;5000563;28;20199;-59
2021/06/17 06:20:44;;;;;;;6.10;4.70;;;24.00;87.40;;;;;;4991383;28;20179;-60
2021/06/17 06:23:10;;;;;;;5.93;4.40;;;24.20;85.90;;;;;;4992358;28;20446;-63
2021/06/17 06:25:37;;;;;;;5.83;4.47;;;24.40;86.20;;;;;;5007101;28;20585;-61
2021/06/17 06:28:04;;;;;;;4.63;4.20;;;24.50;84.60;;;;;;4991155;28;20480;-60
2021/06/17 06:30:30;;;;;;;4.53;4.13;;;24.70;84.60;;;;;;4995539;28;20942;-60
2021/06/17 06:32:57;;;;;;;4.40;4.10;;;24.90;83.00;;;;;;4985190;28;20545;-60
2021/06/17 06:35:24;;;;;;;6.40;4.30;;;25.00;82.80;;;;;;4991929;28;20439;-60
2021/06/17 06:37:51;;;;;;;9.50;4.73;;;25.20;82.70;;;;;;4994119;28;20471;-60
2021/06/17 06:40:23;;;;;;;5.80;4.10;;;25.30;82.30;;;;;;4992814;28;20830;-60
2021/06/17 06:42:49;;;;;;;5.30;4.63;;;25.40;81.40;;;;;;4989945;28;20451;-61
2021/06/17 06:45:15;;;;;;;5.87;4.67;;;25.40;81.40;;;;;;5000619;28;20474;-61
2021/06/17 06:47:41;;;;;;;6.23;4.30;;;25.50;81.10;;;;;;4998431;28;20458;-60
2021/06/17 06:50:08;;;;;;;5.50;4.50;;;25.60;81.20;;;;;;4992130;28;20448;-60
2021/06/17 06:52:33;;;;;;;6.20;4.40;;;25.80;80.30;;;;;;4994580;28;20558;-59
2021/06/17 06:54:59;;;;;;;5.90;5.30;;;26.00;80.00;;;;;;4987391;28;20440;-60
2021/06/17 06:57:29;;;;;;;5.53;4.23;;;26.20;79.50;;;;;;4987999;28;20733;-60
2021/06/17 06:59:55;;;;;;;6.27;4.53;;;26.60;78.10;;;;;;5003842;28;20822;-60
2021/06/17 07:02:21;;;;;;;8.77;4.83;;;26.90;77.10;;;;;;4988940;28;20517;-61
2021/06/17 07:04:47;;;;;;;8.30;5.03;;;27.70;74.40;;;;;;4985550;28;20503;-60
2021/06/17 07:07:13;;;;;;;5.00;4.57;;;29.30;68.90;;;;;;4991288;28;20485;-60
2021/06/17 07:09:39;;;;;;;4.90;4.30;;;31.40;62.00;;;;;;4995109;28;20529;-61
2021/06/17 07:12:05;;;;;;;4.30;4.00;;;33.70;56.30;;;;;;4988986;28;20446;-60
2021/06/17 07:14:32;;;;;;;4.60;4.20;;;35.80;50.40;;;;;;4993686;28;20538;-59
2021/06/17 07:16:58;;;;;;;7.20;3.77;;;36.70;47.10;;;;;;4994346;28;20459;-59
2021/06/17 07:19:24;;;;;;;10.13;7.10;;;37.70;43.60;;;;;;4993234;28;20448;-59
2021/06/17 07:21:49;;;;;;;7.30;6.37;;;38.50;42.20;;;;;;4992199;28;20465;-59
2021/06/17 07:24:15;;;;;;;4.93;4.03;;;39.50;40.20;;;;;;4991157;28;20210;-59
2021/06/17 07:26:41;;;;;;;4.20;3.90;;;40.30;38.70;;;;;;5001821;28;20234;-60
2021/06/17 07:29:07;;;;;;;7.50;4.57;;;42.30;35.50;;;;;;4998985;28;20441;-59
2021/06/17 07:31:33;;;;;;;15.63;14.00;;;41.90;35.10;;;;;;4992251;28;21200;-61
2021/06/17 07:33:59;;;;;;;6.17;4.50;;;41.20;34.50;;;;;;4998476;28;20199;-61
2021/06/17 07:36:25;;;;;;;4.70;4.30;;;42.00;34.70;;;;;;4975467;28;20952;-59
2021/06/17 07:38:51;;;;;;;5.33;4.70;;;44.20;32.10;;;;;;4991587;28;20438;-57
2021/06/17 07:41:17;;;;;;;4.90;4.10;;;45.70;29.50;;;;;;4992421;28;20439;-57
2021/06/17 07:43:43;;;;;;;6.40;4.67;;;44.00;30.00;;;;;;4997532;28;21023;-59
2021/06/17 07:46:09;;;;;;;4.80;4.23;;;45.00;29.70;;;;;;4993414;28;20453;-59
2021/06/17 07:48:37;;;;;;;5.60;5.07;;;43.70;29.60;;;;;;4987498;28;20227;-58
2021/06/17 07:51:03;;;;;;;4.83;4.53;;;44.00;30.00;;;;;;5010819;28;20545;-58
2021/06/17 07:53:28;;;;;;;4.13;3.80;;;43.80;29.50;;;;;;4988668;28;20438;-58
2021/06/17 07:55:54;;;;;;;5.07;4.70;;;43.70;28.90;;;;;;4986940;28;20668;-58
2021/06/17 07:58:20;;;;;;;4.13;3.83;;;45.40;28.80;;;;;;4987428;28;20246;-59
2021/06/17 08:00:45;;;;;;;4.27;3.60;;;46.20;27.10;;;;;;4990537;28;20195;-59
2021/06/17 08:03:11;;;;;;;4.30;3.67;;;45.30;27.10;;;;;;4995903;28;20186;-58
2021/06/17 08:05:37;;;;;;;4.13;3.83;;;44.00;27.80;;;;;;4998475;28;20267;-58
2021/06/17 08:08:03;;;;;;;7.30;3.50;;;43.30;27.40;;;;;;4993373;28;20203;-59
2021/06/17 08:10:29;;;;;;;4.27;3.80;;;42.90;28.40;;;;;;4997173;28;20183;-59
2021/06/17 08:12:54;;;;;;;6.23;5.73;;;45.00;27.80;;;;;;4989250;28;20443;-59
2021/06/17 08:15:22;;;;;;;3.97;3.47;;;46.60;27.10;;;;;;4988149;28;20192;-59
2021/06/17 08:17:48;;;;;;;4.03;3.70;;;47.70;25.80;;;;;;4996566;28;20198;-60
2021/06/17 08:20:14;;;;;;;4.00;3.70;;;46.60;26.20;;;;;;4991445;28;20454;-58
2021/06/17 08:22:41;;;;;;;4.67;4.30;;;47.50;25.80;;;;;;4989460;28;20434;-61
2021/06/17 08:25:10;;;;;;;4.23;3.90;;;46.60;25.80;;;;;;4990138;28;20421;-59
2021/06/17 08:27:36;;;;;;;3.97;3.70;;;47.50;26.00;;;;;;5000215;28;20588;-59
2021/06/17 08:30:04;;;;;;;5.37;4.13;;;48.30;25.70;;;;;;4990023;28;20525;-58
2021/06/17 08:32:30;;;;;;;4.23;3.90;;;48.70;25.30;;;;;;4989361;28;20533;-60
2021/06/17 08:34:56;;;;;;;3.67;3.37;;;48.50;24.80;;;;;;4996311;28;20601;-59
2021/06/17 08:37:21;;;;;;;3.90;3.70;;;47.50;25.00;;;;;;4992276;28;20222;-59
2021/06/17 08:39:49;;;;;;;4.10;3.80;;;47.00;24.70;;;;;;4992388;28;20192;-58
2021/06/17 08:42:15;;;;;;;4.00;3.70;;;46.60;24.50;;;;;;4990201;28;20187;-59
2021/06/17 08:44:42;;;;;;;4.00;3.70;;;46.10;24.80;;;;;;4996894;28;20463;-59
2021/06/17 08:47:09;;;;;;;3.93;3.63;;;45.80;24.30;;;;;;4995302;28;20215;-59
2021/06/17 08:49:35;;;;;;;3.83;3.40;;;45.70;24.80;;;;;;4992052;28;20875;-59
2021/06/17 08:52:02;;;;;;;3.73;3.43;;;45.00;24.60;;;;;;4991778;28;20656;-59
2021/06/17 08:54:29;;;;;;;3.47;3.27;;;44.60;25.70;;;;;;4992310;28;20696;-59
2021/06/17 08:56:55;;;;;;;3.87;3.67;;;45.20;25.70;;;;;;5002552;28;20457;-58
2021/06/17 08:59:41;;;;;;;4.80;3.73;;;44.70;26.20;;;;;;4989720;28;20812;-59
2021/06/17 09:02:07;;;;;;;4.30;3.80;;;45.10;25.90;;;;;;4987869;28;20664;-58
2021/06/17 09:04:33;;;;;;;4.27;4.03;;;44.50;25.50;;;;;;5005579;28;20469;-58
2021/06/17 09:07:00;;;;;;;6.20;4.17;;;45.20;26.00;;;;;;4986675;28;20465;-58
2021/06/17 09:09:46;;;;;;;4.33;3.97;;;45.40;25.60;;;;;;4996091;28;20446;-59
2021/06/17 09:12:15;;;;;;;4.53;4.00;;;45.40;25.50;;;;;;4996253;28;20525;-59
2021/06/17 09:14:51;;;;;;;4.00;3.70;;;45.50;25.40;;;;;;4998284;28;20457;-59
2021/06/17 09:17:17;;;;;;;3.70;3.50;;;46.80;24.30;;;;;;4991261;28;21307;-59
2021/06/17 09:19:45;;;;;;;4.20;4.00;;;46.20;24.50;;;;;;4994710;28;20446;-59
2021/06/17 09:22:17;;;;;;;4.37;4.07;;;46.50;24.50;;;;;;4991955;28;20675;-59
2021/06/17 09:24:46;;;;;;;3.77;3.47;;;46.50;24.30;;;;;;4993254;28;20457;-60
2021/06/17 09:27:22;;;;;;;3.80;3.60;;;45.50;25.30;;;;;;4996607;28;20944;-62
2021/06/17 09:30:12;;;;;;;4.20;3.80;;;46.40;24.60;;;;;;5000177;28;20472;-60
2021/06/17 09:32:41;;;;;;;4.60;4.20;;;45.80;25.30;;;;;;4985031;28;20447;-62
2021/06/17 09:35:17;;;;;;;5.13;4.60;;;44.80;26.30;;;;;;4986309;28;20442;-60
2021/06/17 09:37:43;;;;;;;5.80;5.23;;;43.70;27.30;;;;;;4986218;28;20462;-61
2021/06/17 09:40:34;;;;;;;6.17;4.90;;;43.40;27.70;;;;;;4987510;28;20445;-60
2021/06/17 09:43:19;;;;;;;5.33;4.83;;;43.20;28.10;;;;;;4986474;28;20218;-61
2021/06/17 09:46:05;;;;;;;7.17;5.47;;;44.90;27.20;;;;;;4988091;28;20446;-60
2021/06/17 09:48:46;;;;;;;5.73;5.17;;;44.90;27.20;;;;;;4987754;28;20463;-60
2021/06/17 09:51:23;;;;;;;5.77;5.07;;;45.10;27.10;;;;;;4987581;28;20825;-61
2021/06/17 09:53:50;;;;;;;5.87;5.37;;;45.40;27.10;;;;;;4986409;28;20496;-61
2021/06/17 09:56:17;;;;;;;8.37;7.03;;;46.10;26.40;;;;;;4986567;28;20450;-61
2021/06/17 09:58:44;;;;;;;5.60;5.20;;;45.10;27.00;;;;;;4986274;28;20435;-60
2021/06/17 10:01:16;;;;;;;5.40;4.90;;;45.10;27.30;;;;;;4987392;28;20450;-60
2021/06/17 10:03:46;;;;;;;6.03;5.33;;;45.00;27.30;;;;;;5001792;28;20502;-60
2021/06/17 10:06:19;;;;;;;5.30;4.90;;;45.40;27.40;;;;;;4984030;28;20446;-61
2021/06/17 10:08:45;;;;;;;5.47;4.60;;;46.10;26.00;;;;;;4984982;28;20457;-61
2021/06/17 10:11:13;;;;;;;5.50;5.10;;;46.60;25.70;;;;;;4988938;28;20525;-61
2021/06/17 10:13:39;;;;;;;5.27;4.77;;;46.60;25.80;;;;;;4991167;28;20442;-61
2021/06/17 10:16:06;;;;;;;4.90;4.60;;;45.70;26.00;;;;;;4986856;28;20500;-62
2021/06/17 10:18:32;;;;;;;5.53;5.13;;;45.30;25.80;;;;;;4989593;28;20699;-60
2021/06/17 10:20:58;;;;;;;7.47;5.20;;;45.20;26.30;;;;;;4990295;28;20844;-61
2021/06/17 10:23:24;;;;;;;7.20;5.50;;;45.20;27.00;;;;;;4995446;28;20489;-61
2021/06/17 10:25:51;;;;;;;6.10;5.70;;;45.60;26.60;;;;;;4991210;28;20439;-61
2021/06/17 10:28:40;;;;;;;5.93;5.57;;;45.90;26.20;;;;;;4993408;28;20226;-60
2021/06/17 10:31:05;;;;;;;5.33;4.90;;;45.00;26.30;;;;;;5009666;28;20443;-58
2021/06/17 10:33:34;;;;;;;5.47;5.17;;;44.90;26.90;;;;;;4993755;28;20455;-59
2021/06/17 10:36:38;;;;;;;6.67;6.17;;;44.70;26.50;;;;;;4989526;28;20188;-60
2021/06/17 10:39:10;;;;;;;5.73;5.33;;;44.30;27.30;;;;;;4990219;28;20500;-60
2021/06/17 10:41:56;;;;;;;5.10;4.80;;;44.60;27.10;;;;;;4993173;28;20536;-58
2021/06/17 10:44:56;;;;;;;5.70;5.20;;;44.40;27.70;;;;;;4999549;28;20476;-59
2021/06/17 10:47:52;;;;;;;10.20;7.20;;;44.90;26.80;;;;;;4991008;28;20963;-59
2021/06/17 10:50:42;;;;;;;7.97;4.90;;;44.70;26.60;;;;;;4991691;28;20522;-59
2021/06/17 10:53:28;;;;;;;5.97;5.17;;;44.60;26.60;;;;;;4998082;28;20449;-58
2021/06/17 10:56:01;;;;;;;6.57;6.13;;;44.60;26.70;;;;;;4995373;28;20687;-60
2021/06/17 10:58:45;;;;;;;7.83;5.67;;;43.90;27.30;;;;;;4991896;28;20493;-60
2021/06/17 11:01:27;;;;;;;5.67;5.27;;;44.30;27.30;;;;;;4989023;28;20452;-60
2021/06/17 11:04:05;;;;;;;6.13;5.60;;;44.50;27.10;;;;;;4988724;28;20942;-60
2021/06/17 11:06:52;;;;;;;5.57;5.17;;;44.50;27.10;;;;;;4988472;28;20439;-60
2021/06/17 11:09:40;;;;;;;6.23;5.80;;;44.00;27.30;;;;;;4989349;28;20974;-59
2021/06/17 11:12:18;;;;;;;5.83;5.33;;;43.70;27.30;;;;;;4990507;28;20462;-59
2021/06/17 11:14:45;;;;;;;5.60;5.17;;;43.10;28.40;;;;;;4990504;28;20884;-59
2021/06/17 11:17:33;;;;;;;5.70;5.30;;;42.10;29.20;;;;;;4988918;28;20470;-59
2021/06/17 11:20:11;;;;;;;6.50;5.90;;;41.40;29.90;;;;;;4990892;28;20884;-60
2021/06/17 11:22:40;;;;;;;6.20;5.73;;;41.10;30.40;;;;;;5006674;28;20512;-59
2021/06/17 11:25:15;;;;;;;5.80;5.40;;;40.80;30.40;;;;;;4993670;28;20466;-59
2021/06/17 11:28:11;;;;;;;6.87;6.20;;;40.60;30.70;;;;;;4998178;28;20456;-59
2021/06/17 11:30:41;;;;;;;7.10;6.10;;;39.70;31.80;;;;;;4988697;28;20461;-60
2021/06/17 11:33:16;;;;;;;6.80;6.10;;;39.90;31.40;;;;;;4990637;28;20831;-61
2021/06/17 11:35:49;;;;;;;5.37;5.03;;;40.30;30.80;;;;;;4993130;28;20567;-59
2021/06/17 11:38:25;;;;;;;7.07;5.60;;;40.00;31.20;;;;;;4993707;28;20598;-59
2021/06/17 11:40:51;;;;;;;5.93;5.53;;;39.70;31.70;;;;;;4994217;28;20492;-59
2021/06/17 11:43:28;;;;;;;6.73;6.33;;;38.70;32.00;;;;;;4994653;28;20490;-59
2021/06/17 11:45:55;;;;;;;5.93;5.43;;;37.90;33.80;;;;;;5000954;28;20555;-59
2021/06/17 11:48:21;;;;;;;6.07;5.67;;;38.30;33.60;;;;;;4995264;28;20454;-59
2021/06/17 11:50:53;;;;;;;6.97;6.37;;;37.90;34.10;;;;;;4998006;28;20438;-59
2021/06/17 11:53:24;;;;;;;8.43;7.40;;;37.40;34.70;;;;;;4997174;28;20434;-60
2021/06/17 11:55:55;;;;;;;7.53;7.03;;;37.00;35.70;;;;;;4992479;28;20947;-60
2021/06/17 11:58:25;;;;;;;6.40;6.00;;;36.90;35.30;;;;;;5004432;28;20480;-58
2021/06/17 12:00:51;;;;;;;6.43;5.93;;;36.80;35.50;;;;;;4995707;28;21086;-58
2021/06/17 12:03:23;;;;;;;6.67;5.97;;;36.70;35.60;;;;;;4998450;28;20558;-58
2021/06/17 12:06:03;;;;;;;7.57;6.23;;;36.20;36.10;;;;;;4994981;28;20297;-58
2021/06/17 12:08:29;;;;;;;6.97;6.37;;;36.10;36.80;;;;;;4988037;28;21250;-56
2021/06/17 12:10:59;;;;;;;6.20;5.70;;;35.70;37.10;;;;;;5006188;28;20487;-59
2021/06/17 12:13:25;;;;;;;6.20;5.60;;;35.60;38.00;;;;;;4989351;28;20191;-58
2021/06/17 12:15:57;;;;;;;6.90;6.30;;;35.30;39.00;;;;;;4992768;28;20438;-58
2021/06/17 12:18:22;;;;;;;6.53;5.93;;;34.90;39.80;;;;;;4993771;28;20217;-58
2021/06/17 12:20:49;;;;;;;6.43;5.93;;;35.00;39.70;;;;;;4988824;28;20450;-57
2021/06/17 12:23:24;;;;;;;6.30;5.80;;;35.00;38.40;;;;;;4991262;28;20245;-57
2021/06/17 12:26:06;;;;;;;6.80;6.30;;;34.80;39.00;;;;;;4992741;28;20457;-57
2021/06/17 12:28:49;;;;;;;7.97;6.50;;;34.60;39.90;;;;;;4990370;28;20553;-58
2021/06/17 12:31:25;;;;;;;6.47;6.00;;;34.50;39.60;;;;;;4993094;28;21023;-57
2021/06/17 12:33:50;;;;;;;7.37;6.80;;;34.40;39.90;;;;;;4991942;28;20441;-58
2021/06/17 12:36:17;;;;;;;6.50;5.77;;;34.40;39.30;;;;;;5005886;28;20985;-57
2021/06/17 12:38:43;;;;;;;6.83;5.53;;;34.50;39.60;;;;;;4988846;28;20333;-58
2021/06/17 12:41:13;;;;;;;5.60;5.20;;;34.50;40.30;;;;;;5001524;28;20524;-57
2021/06/17 12:43:42;;;;;;;6.80;6.20;;;34.40;40.50;;;;;;4988455;28;20191;-58
2021/06/17 12:46:09;;;;;;;6.57;5.70;;;34.40;40.20;;;;;;4992896;28;20451;-58
2021/06/17 12:54:10;;;;;;;6.40;5.70;;;34.20;40.00;;;;;;4988351;28;20476;-57
2021/06/17 12:57:08;;;;;;;7.40;5.93;;;34.10;40.30;;;;;;4985192;28;20458;-58
2021/06/17 12:59:43;;;;;;;5.93;5.57;;;34.30;40.60;;;;;;4995580;28;20513;-59
2021/06/17 13:02:10;;;;;;;6.47;5.90;;;34.20;40.60;;;;;;4985292;28;20520;-57
2021/06/17 13:04:37;;;;;;;6.87;6.37;;;34.30;40.90;;;;;;4983900;28;20990;-58
2021/06/17 13:07:16;;;;;;;6.00;5.60;;;34.30;40.30;;;;;;4984001;28;20482;-59